createdAt,value
2022-08-16T00:01:45.076Z,7.70
2022-08-16T00:06:46.649Z,6.80
2022-08-16T00:11:48.169Z,7.38
2022-08-16T00:17:00.549Z,8.00
2022-08-16T00:22:13.634Z,7.30
2022-08-16T00:27:17.547Z,7.28
2022-08-16T00:32:19.190Z,6.93
2022-08-16T00:37:25.059Z,6.57
2022-08-16T00:42:46.395Z,7.38
2022-08-16T00:47:56.413Z,7.38
2022-08-16T00:52:58.125Z,7.15
2022-08-16T00:58:00.980Z,7.88
2022-08-16T01:08:36.432Z,7.13
2022-08-16T01:13:29.120Z,7.88
2022-08-16T01:18:40.638Z,7.47
2022-08-16T01:24:53.418Z,8.23
2022-08-16T01:29:57.234Z,9.32
2022-08-16T01:35:00.745Z,9.38
2022-08-16T01:40:03.917Z,8.32
2022-08-16T01:45:09.049Z,8.68
2022-08-16T01:55:35.403Z,9.35
2022-08-16T02:00:37.399Z,8.75
2022-08-16T02:05:40.775Z,9.18
2022-08-16T02:10:48.389Z,10.25
2022-08-16T02:15:50.583Z,8.50
2022-08-16T02:20:54.171Z,10.18
2022-08-16T02:25:55.692Z,8.80
2022-08-16T02:30:58.198Z,9.27
2022-08-16T02:36:00.121Z,9.07
2022-08-16T02:41:07.360Z,10.45
2022-08-16T02:46:11.472Z,10.43
2022-08-16T02:51:12.991Z,10.15
2022-08-16T03:01:24.578Z,9.88
2022-08-16T03:06:38.911Z,11.75
2022-08-16T03:11:44.819Z,11.40
2022-08-16T03:16:59.238Z,11.90
2022-08-16T03:22:01.504Z,13.55
2022-08-16T03:27:03.193Z,15.30
2022-08-16T03:32:04.831Z,13.48
2022-08-16T03:37:06.719Z,14.27
2022-08-16T03:42:09.718Z,13.73
2022-08-16T03:47:11.737Z,14.77
2022-08-16T03:52:13.481Z,17.15
2022-08-16T03:57:15.718Z,15.68
2022-08-16T04:02:22.810Z,18.23
2022-08-16T04:07:33.750Z,17.08
2022-08-16T04:12:54.458Z,16.40
2022-08-16T04:17:57.846Z,16.50
2022-08-16T04:22:59.587Z,16.27
2022-08-16T04:28:54.593Z,16.70
2022-08-16T04:33:27.390Z,18.92
2022-08-16T04:38:30.452Z,15.43
2022-08-16T04:43:33.371Z,15.98
2022-08-16T04:48:34.993Z,14.32
2022-08-16T04:53:36.789Z,16.10
2022-08-16T04:58:46.018Z,12.77
2022-08-16T05:03:59.671Z,12.75
2022-08-16T05:14:06.857Z,11.82
2022-08-16T05:19:11.791Z,12.82
2022-08-16T05:24:15.368Z,13.50
2022-08-16T05:29:57.357Z,16.40
2022-08-16T05:34:47.904Z,17.50
2022-08-16T05:39:55.428Z,13.70
2022-08-16T05:44:57.612Z,15.07
2022-08-16T05:49:59.204Z,15.55
2022-08-16T05:55:01.714Z,14.45
2022-08-16T06:00:09.093Z,12.98
2022-08-16T06:05:11.450Z,9.55
2022-08-16T06:10:31.922Z,12.95
2022-08-16T06:15:35.263Z,11.70
2022-08-16T06:20:38.069Z,12.07
2022-08-16T06:25:57.513Z,14.93
2022-08-16T06:31:01.358Z,14.25
2022-08-16T06:36:03.761Z,13.32
2022-08-16T06:46:09.696Z,13.25
2022-08-16T06:51:11.502Z,12.82
2022-08-16T06:56:23.053Z,15.82
2022-08-16T07:01:43.231Z,13.80
2022-08-16T07:06:46.735Z,14.95
2022-08-16T07:11:52.188Z,15.63
2022-08-16T07:16:57.950Z,15.10
2022-08-16T07:22:02.338Z,17.27
2022-08-16T07:27:08.634Z,15.25
2022-08-16T07:32:14.035Z,15.35
2022-08-16T07:37:15.574Z,15.75
2022-08-16T07:42:25.907Z,14.85
2022-08-16T07:47:31.636Z,15.63
2022-08-16T07:52:34.186Z,16.88
2022-08-16T07:57:44.523Z,15.25
2022-08-16T08:02:57.230Z,15.55
2022-08-16T08:07:58.768Z,13.50
2022-08-16T08:13:01.823Z,14.70
2022-08-16T08:18:30.602Z,14.77
2022-08-16T08:23:27.608Z,13.13
2022-08-16T08:28:31.917Z,13.93
2022-08-16T08:33:34.033Z,15.02
2022-08-16T08:38:43.715Z,15.88
2022-08-16T08:43:47.314Z,15.52
2022-08-16T08:49:00.108Z,14.43
2022-08-16T08:54:09.262Z,14.98
2022-08-16T08:59:13.530Z,17.88
2022-08-16T09:04:21.469Z,14.60
2022-08-16T09:09:23.228Z,17.83
2022-08-16T09:14:25.094Z,14.70
2022-08-16T09:19:32.966Z,16.77
2022-08-16T09:24:52.759Z,16.92
2022-08-16T09:30:00.054Z,16.20
2022-08-16T09:35:03.019Z,17.45
2022-08-16T09:40:32.801Z,13.75
2022-08-16T09:45:29.059Z,16.25
2022-08-16T09:50:37.246Z,18.67
2022-08-16T09:55:44.551Z,15.55
2022-08-16T10:00:46.504Z,16.40
2022-08-16T10:05:48.466Z,19.33
2022-08-16T10:11:09.536Z,17.63
2022-08-16T10:21:16.577Z,18.67
2022-08-16T10:27:03.784Z,20.35
2022-08-16T10:31:45.291Z,19.15
2022-08-16T10:36:48.219Z,22.02
2022-08-16T10:41:55.898Z,16.65
2022-08-16T10:46:57.448Z,17.85
2022-08-16T10:52:01.317Z,16.88
2022-08-16T10:57:05.239Z,20.08
2022-08-16T11:02:57.793Z,19.02
2022-08-16T11:07:43.335Z,17.42
2022-08-16T11:12:46.704Z,16.70
2022-08-16T11:18:48.297Z,15.82
2022-08-16T11:23:11.972Z,20.33
2022-08-16T11:29:12.412Z,14.63
2022-08-16T11:33:55.186Z,21.25
2022-08-16T11:39:00.212Z,15.20
2022-08-16T11:44:02.847Z,17.75
2022-08-16T11:49:08.635Z,21.33
2022-08-16T11:54:20.526Z,15.13
2022-08-16T11:59:24.403Z,17.55
2022-08-16T12:04:30.387Z,16.33
2022-08-16T12:09:31.943Z,18.02
2022-08-16T12:14:35.311Z,18.35
2022-08-16T12:19:39.151Z,16.45
2022-08-16T12:24:40.701Z,19.65
2022-08-16T12:29:44.799Z,21.58
2022-08-16T12:34:50.516Z,18.35
2022-08-16T12:39:56.102Z,21.13
2022-08-16T12:44:57.782Z,20.40
2022-08-16T12:49:59.965Z,17.63
2022-08-16T12:55:01.946Z,23.20
2022-08-16T13:00:12.719Z,24.63
2022-08-16T13:05:28.723Z,18.30
2022-08-16T13:10:38.030Z,17.63
2022-08-16T13:15:51.705Z,17.83
2022-08-16T13:21:01.281Z,22.60
2022-08-16T13:26:05.258Z,20.75
2022-08-16T13:31:09.417Z,20.00
2022-08-16T13:36:21.345Z,23.88
2022-08-16T13:41:33.644Z,22.23
2022-08-16T13:46:35.422Z,18.17
2022-08-16T13:51:39.196Z,18.35
2022-08-16T13:56:41.371Z,22.67
2022-08-16T14:01:43.083Z,17.17
2022-08-16T14:06:46.712Z,20.20
2022-08-16T14:11:49.477Z,17.25
2022-08-16T14:16:55.081Z,14.43
2022-08-16T14:22:14.842Z,15.73
2022-08-16T14:27:21.355Z,13.38
2022-08-16T14:32:33.069Z,13.60
2022-08-16T14:37:35.810Z,13.85
2022-08-16T14:42:37.409Z,12.77
2022-08-16T14:47:39.019Z,13.25
2022-08-16T14:52:55.173Z,13.18
2022-08-16T14:57:58.341Z,10.38
2022-08-16T15:03:00.753Z,15.23
2022-08-16T15:08:03.998Z,11.77
2022-08-16T15:13:06.634Z,11.20
2022-08-16T15:18:11.815Z,11.50
2022-08-16T15:23:13.909Z,13.13
2022-08-16T15:28:31.121Z,12.60
2022-08-16T15:33:35.155Z,13.18
2022-08-16T15:39:02.499Z,12.35
2022-08-16T15:44:03.562Z,12.43
2022-08-16T15:49:13.652Z,12.98
2022-08-16T15:54:20.913Z,12.25
2022-08-16T15:59:48.644Z,13.45
2022-08-16T16:04:51.727Z,13.27
2022-08-16T16:09:55.477Z,14.05
2022-08-16T16:15:00.525Z,13.13
2022-08-16T16:25:04.660Z,15.23
2022-08-16T16:30:33.590Z,18.58
2022-08-16T16:35:28.528Z,18.08
2022-08-16T16:40:35.357Z,19.70
2022-08-16T16:45:37.268Z,21.38
2022-08-16T16:50:39.389Z,20.67
2022-08-16T16:55:40.992Z,21.63
2022-08-16T17:00:42.733Z,21.42
2022-08-16T17:06:00.206Z,20.48
2022-08-16T17:11:04.883Z,18.38
2022-08-16T17:16:18.990Z,18.65
2022-08-16T17:21:21.636Z,19.65
2022-08-16T17:26:30.264Z,19.02
2022-08-16T17:31:40.614Z,18.30
2022-08-16T17:36:45.281Z,17.25
2022-08-16T17:41:56.882Z,18.65
2022-08-16T17:46:58.399Z,16.25
2022-08-16T17:52:00.020Z,15.80
2022-08-16T18:02:42.051Z,14.77
2022-08-16T18:07:24.883Z,14.23
2022-08-16T18:12:50.704Z,14.15
2022-08-16T18:17:53.114Z,15.82
2022-08-16T18:22:54.667Z,15.52
2022-08-16T18:27:56.245Z,14.93
2022-08-16T18:32:57.800Z,16.63
2022-08-16T18:37:59.378Z,16.10
2022-08-16T18:43:03.263Z,15.48
2022-08-16T18:48:05.604Z,14.48
2022-08-16T18:53:08.155Z,16.75
2022-08-16T18:58:09.778Z,15.95
2022-08-16T19:03:25.660Z,17.35
2022-08-16T19:08:27.241Z,14.43
2022-08-16T19:13:29.066Z,17.48
2022-08-16T19:18:36.663Z,17.77
2022-08-16T19:23:39.043Z,14.77
2022-08-16T19:28:58.159Z,15.88
2022-08-16T19:34:01.593Z,15.93
2022-08-16T19:39:06.099Z,15.07
2022-08-16T19:44:07.735Z,18.27
2022-08-16T19:49:09.264Z,14.02
2022-08-16T19:59:20.082Z,16.85
2022-08-16T20:04:23.120Z,15.43
2022-08-16T20:14:26.702Z,16.45
2022-08-16T20:19:29.149Z,15.30
2022-08-16T20:24:35.266Z,18.95
2022-08-16T20:29:38.416Z,18.58
2022-08-16T20:34:41.462Z,17.83
2022-08-16T20:39:47.069Z,18.65
2022-08-16T20:44:48.630Z,17.80
2022-08-16T20:49:50.680Z,19.45
2022-08-16T20:54:52.436Z,19.33
2022-08-16T21:04:55.736Z,16.23
2022-08-16T21:09:57.317Z,18.52
2022-08-16T21:15:04.076Z,18.13
2022-08-16T21:20:06.071Z,17.13
2022-08-16T21:25:10.702Z,15.25
2022-08-16T21:30:12.995Z,15.65
2022-08-16T21:35:18.233Z,17.50
2022-08-16T21:40:19.790Z,15.80
2022-08-16T21:45:21.315Z,16.83
2022-08-16T21:50:22.864Z,17.20
2022-08-16T21:55:26.360Z,18.20
2022-08-16T22:00:28.143Z,18.13
2022-08-16T22:11:06.632Z,16.73
2022-08-16T22:15:54.040Z,15.95
2022-08-16T22:20:55.665Z,15.40
2022-08-16T22:25:57.450Z,15.50
2022-08-16T22:41:05.132Z,15.52
2022-08-16T22:46:06.859Z,14.95
2022-08-16T22:56:09.789Z,14.63
2022-08-16T23:01:12.128Z,15.80
2022-08-16T23:06:13.894Z,14.68
2022-08-16T23:11:20.958Z,15.10
2022-08-16T23:16:33.251Z,20.67
2022-08-16T23:21:36.961Z,19.33
2022-08-16T23:26:47.670Z,17.27
2022-08-16T23:31:50.164Z,21.63
2022-08-16T23:36:55.347Z,21.42
2022-08-16T23:41:56.972Z,15.57
2022-08-16T23:46:58.961Z,19.00
2022-08-16T23:52:07.630Z,15.60
2022-08-16T23:57:09.159Z,15.65
